createdAt,value
2024-05-09T00:14:57.570Z,103
2024-05-09T00:47:08.024Z,104
2024-05-09T01:16:56.454Z,103
2024-05-09T01:46:55.365Z,102
2024-05-09T02:16:51.807Z,104
2024-05-09T02:46:49.434Z,103
2024-05-09T03:16:51.875Z,101
2024-05-09T03:46:48.083Z,100
2024-05-09T04:17:57.843Z,101
2024-05-09T04:47:50.317Z,102
2024-05-09T05:17:53.736Z,97
2024-05-09T05:47:56.348Z,98
2024-05-09T06:18:01.464Z,100
2024-05-09T06:47:59.896Z,99
2024-05-09T07:18:06.646Z,115
2024-05-09T08:18:13.583Z,105
2024-05-09T08:48:20.833Z,98
2024-05-09T09:18:26.069Z,95
2024-05-09T09:48:29.050Z,90
2024-05-09T10:18:29.438Z,92
2024-05-09T10:48:34.614Z,95
2024-05-09T11:19:44.815Z,87
2024-05-09T11:49:40.786Z,87
2024-05-09T12:19:47.251Z,86
2024-05-09T12:49:50.255Z,85
2024-05-09T13:21:01.471Z,84
2024-05-09T13:51:00.378Z,83
2024-05-09T14:21:01.831Z,80
2024-05-09T14:51:02.536Z,105
2024-05-09T15:21:08.560Z,87
2024-05-09T15:51:08.935Z,90
2024-05-09T16:21:11.370Z,88
2024-05-09T16:51:12.363Z,84
2024-05-09T17:51:15.010Z,85
2024-05-09T18:21:16.837Z,86
2024-05-09T18:51:08.653Z,86
2024-05-09T19:21:02.703Z,82
2024-05-09T19:53:19.955Z,82
2024-05-09T20:23:10.527Z,94
2024-05-09T20:53:11.279Z,91
2024-05-09T21:23:12.627Z,88
2024-05-09T21:53:09.822Z,85
2024-05-09T22:23:09.058Z,86
2024-05-09T22:53:11.227Z,83
2024-05-09T23:23:13.163Z,83
2024-05-09T23:54:21.032Z,79
